createdAt,value
2018-12-22T00:00:40.077Z,51.37
2018-12-22T00:03:08.556Z,65.63
2018-12-22T00:05:36.121Z,54.03
2018-12-22T00:08:03.678Z,49.87
2018-12-22T00:10:32.147Z,71.10
2018-12-22T00:13:02.483Z,52.47
2018-12-22T00:15:30.183Z,61.37
2018-12-22T00:17:57.795Z,58.30
2018-12-22T00:20:25.348Z,50.77
2018-12-22T00:22:53.003Z,54.03
2018-12-22T00:25:20.580Z,54.03
2018-12-22T00:27:48.129Z,37.80
2018-12-22T00:30:15.800Z,41.80
2018-12-22T00:32:46.389Z,44.20
2018-12-22T00:35:13.940Z,46.47
2018-12-22T00:37:41.498Z,44.57
2018-12-22T00:40:09.385Z,51.53
2018-12-22T00:42:36.953Z,42.97
2018-12-22T00:45:05.283Z,48.57
2018-12-22T00:47:32.843Z,44.43
2018-12-22T00:50:00.406Z,54.93
2018-12-22T00:52:27.960Z,37.13
2018-12-22T00:54:55.972Z,40.90
2018-12-22T00:57:23.533Z,39.63
2018-12-22T00:59:51.089Z,45.70
2018-12-22T01:02:18.650Z,57.13
2018-12-22T01:04:46.205Z,44.33
2018-12-22T01:07:13.755Z,60.80
2018-12-22T01:09:41.316Z,40.67
2018-12-22T01:12:08.865Z,43.33
2018-12-22T01:14:37.323Z,52.50
2018-12-22T01:17:04.878Z,40.07
2018-12-22T01:19:33.296Z,46.03
2018-12-22T01:22:00.854Z,48.80
2018-12-22T01:24:28.414Z,42.93
2018-12-22T01:26:55.968Z,52.30
2018-12-22T01:29:23.518Z,55.20
2018-12-22T01:31:51.068Z,43.37
2018-12-22T01:34:18.621Z,47.50
2018-12-22T01:36:47.442Z,53.77
2018-12-22T01:39:15.034Z,46.17
2018-12-22T01:41:42.579Z,44.07
2018-12-22T01:44:10.133Z,52.30
2018-12-22T01:46:37.689Z,36.67
2018-12-22T01:49:05.239Z,50.13
2018-12-22T01:51:32.801Z,38.83
2018-12-22T01:54:00.351Z,51.43
2018-12-22T01:56:27.896Z,53.93
2018-12-22T01:58:55.458Z,51.90
2018-12-22T02:01:23.019Z,39.13
2018-12-22T02:03:50.575Z,42.07
2018-12-22T02:06:18.125Z,47.03
2018-12-22T02:08:45.680Z,42.10
2018-12-22T02:11:13.231Z,41.83
2018-12-22T02:13:40.781Z,39.80
2018-12-22T02:16:08.329Z,36.27
2018-12-22T02:18:35.883Z,22.97
2018-12-22T02:21:03.436Z,20.93
2018-12-22T02:23:30.995Z,27.73
2018-12-22T02:25:58.547Z,24.40
2018-12-22T02:28:26.097Z,17.53
2018-12-22T02:30:53.647Z,20.50
2018-12-22T02:33:21.215Z,27.77
2018-12-22T02:35:48.870Z,28.03
2018-12-22T02:38:16.425Z,33.17
2018-12-22T02:40:43.984Z,39.20
2018-12-22T02:43:11.546Z,27.70
2018-12-22T02:45:39.104Z,33.40
2018-12-22T02:48:06.667Z,34.37
2018-12-22T02:50:34.228Z,39.73
2018-12-22T02:53:01.786Z,44.87
2018-12-22T02:55:29.332Z,44.67
2018-12-22T02:57:56.884Z,54.63
2018-12-22T03:00:24.444Z,47.73
2018-12-22T03:02:52.834Z,47.70
2018-12-22T03:05:20.387Z,48.20
2018-12-22T03:07:48.070Z,50.73
2018-12-22T03:10:15.624Z,40.80
2018-12-22T03:12:43.174Z,43.00
2018-12-22T03:15:10.728Z,34.27
2018-12-22T03:17:38.285Z,26.23
2018-12-22T03:20:05.864Z,30.97
2018-12-22T03:22:35.569Z,37.63
2018-12-22T03:25:03.155Z,22.50
2018-12-22T03:27:30.711Z,24.13
2018-12-22T03:29:58.267Z,30.13
2018-12-22T03:32:25.990Z,21.30
2018-12-22T03:34:56.936Z,28.23
2018-12-22T03:37:32.590Z,28.20
2018-12-22T03:40:04.070Z,19.90
2018-12-22T03:42:33.708Z,20.87
2018-12-22T03:45:01.801Z,22.17
2018-12-22T03:47:34.890Z,20.67
2018-12-22T03:52:42.427Z,22.83
2018-12-22T03:55:11.605Z,24.47
2018-12-22T03:57:42.624Z,19.73
2018-12-22T04:00:18.137Z,14.33
2018-12-22T04:02:48.877Z,22.77
2018-12-22T04:05:17.202Z,15.63
2018-12-22T04:07:45.219Z,13.87
2018-12-22T04:10:13.611Z,18.77
2018-12-22T04:12:41.162Z,21.70
2018-12-22T04:15:08.713Z,21.07
2018-12-22T04:17:36.259Z,20.50
2018-12-22T04:20:05.294Z,17.43
2018-12-22T04:22:32.852Z,18.70
2018-12-22T04:25:00.412Z,18.20
2018-12-22T04:27:28.268Z,18.30
2018-12-22T04:29:55.816Z,20.00
2018-12-22T04:32:24.247Z,16.93
2018-12-22T04:34:52.185Z,13.13
2018-12-22T04:37:19.734Z,17.00
2018-12-22T04:39:47.295Z,19.20
2018-12-22T04:42:14.850Z,7.43
2018-12-22T04:44:42.401Z,18.73
2018-12-22T04:47:11.920Z,12.53
2018-12-22T04:49:39.478Z,24.43
2018-12-22T04:52:07.028Z,21.60
2018-12-22T04:54:34.580Z,18.97
2018-12-22T04:57:02.267Z,18.40
2018-12-22T04:59:29.812Z,15.57
2018-12-22T05:01:57.362Z,11.60
2018-12-22T05:04:24.912Z,13.63
2018-12-22T05:06:52.467Z,17.37
2018-12-22T05:09:20.021Z,13.47
2018-12-22T05:11:47.814Z,15.20
2018-12-22T05:14:15.392Z,10.80
2018-12-22T05:16:42.947Z,19.43
2018-12-22T05:19:10.502Z,9.97
2018-12-22T05:21:38.053Z,13.37
2018-12-22T05:24:05.617Z,12.17
2018-12-22T05:26:33.421Z,7.80
2018-12-22T05:29:00.982Z,17.67
2018-12-22T05:31:28.535Z,15.27
2018-12-22T05:36:29.900Z,12.83
2018-12-22T05:38:57.465Z,10.33
2018-12-22T05:41:25.019Z,11.70
2018-12-22T05:43:52.572Z,11.80
2018-12-22T05:46:20.142Z,20.63
2018-12-22T05:48:47.705Z,14.27
2018-12-22T05:51:15.261Z,16.67
2018-12-22T05:53:43.100Z,12.47
2018-12-22T05:56:10.656Z,16.60
2018-12-22T05:58:38.394Z,20.50
2018-12-22T06:01:05.955Z,21.40
2018-12-22T06:03:33.512Z,15.47
2018-12-22T06:06:01.059Z,17.30
2018-12-22T06:08:28.622Z,16.33
2018-12-22T06:10:56.177Z,20.57
2018-12-22T06:13:23.730Z,19.90
2018-12-22T06:15:51.334Z,16.63
2018-12-22T06:18:18.884Z,13.90
2018-12-22T06:20:46.431Z,17.10
2018-12-22T06:23:14.200Z,21.43
2018-12-22T06:25:41.759Z,19.67
2018-12-22T06:28:10.348Z,17.27
2018-12-22T06:30:40.599Z,17.63
2018-12-22T06:33:08.150Z,20.37
2018-12-22T06:35:36.513Z,10.80
2018-12-22T06:38:04.084Z,11.07
2018-12-22T06:40:32.499Z,12.68
2018-12-22T06:43:02.536Z,14.73
2018-12-22T06:45:31.054Z,20.77
2018-12-22T06:47:58.599Z,18.73
2018-12-22T06:50:26.156Z,16.63
2018-12-22T06:52:53.729Z,17.70
2018-12-22T06:55:21.707Z,22.33
2018-12-22T06:57:49.260Z,16.67
2018-12-22T07:00:17.879Z,21.57
2018-12-22T07:02:45.667Z,16.47
2018-12-22T07:05:13.222Z,16.77
2018-12-22T07:07:41.374Z,19.73
2018-12-22T07:10:11.029Z,12.40
2018-12-22T07:12:39.132Z,19.60
2018-12-22T07:15:06.684Z,14.70
2018-12-22T07:17:34.236Z,16.93
2018-12-22T07:20:01.801Z,17.43
2018-12-22T07:22:29.486Z,16.33
2018-12-22T07:24:57.048Z,15.37
2018-12-22T07:27:24.598Z,15.53
2018-12-22T07:29:52.567Z,10.23
2018-12-22T07:32:20.118Z,13.27
2018-12-22T07:34:47.667Z,15.90
2018-12-22T07:37:15.849Z,11.13
2018-12-22T07:39:45.043Z,16.20
2018-12-22T07:44:51.917Z,22.37
2018-12-22T07:47:21.739Z,18.20
2018-12-22T07:49:50.025Z,16.27
2018-12-22T07:52:18.864Z,23.00
2018-12-22T07:54:46.984Z,17.53
2018-12-22T07:57:14.544Z,13.50
2018-12-22T07:59:42.099Z,16.40
2018-12-22T08:02:09.663Z,21.53
2018-12-22T08:04:37.233Z,27.67
2018-12-22T08:07:04.786Z,17.87
2018-12-22T08:09:32.347Z,21.23
2018-12-22T08:11:59.976Z,23.33
2018-12-22T08:14:28.071Z,19.30
2018-12-22T08:16:55.833Z,20.47
2018-12-22T08:19:23.392Z,23.57
2018-12-22T08:21:50.951Z,22.73
2018-12-22T08:24:18.869Z,18.43
2018-12-22T08:26:46.417Z,13.43
2018-12-22T08:29:13.960Z,13.00
2018-12-22T08:31:41.511Z,16.73
2018-12-22T08:34:09.068Z,14.67
2018-12-22T08:36:36.631Z,21.37
2018-12-22T08:39:04.859Z,16.10
2018-12-22T08:41:33.359Z,14.97
2018-12-22T08:44:00.990Z,22.67
2018-12-22T08:46:28.613Z,15.10
2018-12-22T08:48:56.172Z,9.97
2018-12-22T08:51:23.789Z,15.73
2018-12-22T08:53:51.750Z,14.43
2018-12-22T08:56:19.316Z,11.40
2018-12-22T08:58:46.906Z,17.27
2018-12-22T09:01:14.467Z,14.00
2018-12-22T09:03:43.004Z,8.97
2018-12-22T09:06:10.592Z,18.90
2018-12-22T09:08:38.471Z,13.93
2018-12-22T09:11:06.093Z,15.57
2018-12-22T09:13:33.679Z,10.03
2018-12-22T09:16:01.255Z,14.60
2018-12-22T09:18:28.817Z,16.97
2018-12-22T09:20:57.361Z,20.57
2018-12-22T09:23:25.496Z,13.97
2018-12-22T09:25:53.054Z,18.47
2018-12-22T09:28:20.608Z,15.07
2018-12-22T09:30:48.505Z,17.00
2018-12-22T09:33:16.068Z,16.67
2018-12-22T09:35:43.637Z,108.97
2018-12-22T09:38:11.197Z,128.00
2018-12-22T09:40:38.762Z,173.97
2018-12-22T09:43:06.349Z,193.60
2018-12-22T09:45:33.943Z,134.57
2018-12-22T09:48:01.499Z,124.53
2018-12-22T09:50:29.064Z,115.40
2018-12-22T09:57:49.464Z,24.30
2018-12-22T10:00:17.594Z,26.70
2018-12-22T10:02:45.152Z,16.73
2018-12-22T10:05:13.656Z,16.13
2018-12-22T10:07:41.227Z,14.27
2018-12-22T10:10:10.260Z,15.17
2018-12-22T10:12:37.811Z,16.37
2018-12-22T10:15:07.037Z,15.10
2018-12-22T10:17:34.592Z,9.27
2018-12-22T10:20:02.316Z,12.30
2018-12-22T10:22:30.335Z,11.63
2018-12-22T10:24:57.885Z,15.67
2018-12-22T10:27:25.447Z,13.23
2018-12-22T10:29:53.331Z,14.97
2018-12-22T10:32:20.882Z,14.20
2018-12-22T10:34:48.433Z,14.73
2018-12-22T10:37:15.987Z,12.07
2018-12-22T10:39:43.549Z,13.00
2018-12-22T10:42:11.112Z,13.27
2018-12-22T10:44:38.675Z,15.30
2018-12-22T10:47:06.233Z,14.20
2018-12-22T10:49:33.789Z,10.57
2018-12-22T10:52:01.348Z,14.37
2018-12-22T10:54:28.896Z,15.43
2018-12-22T10:56:56.448Z,14.17
2018-12-22T10:59:24.172Z,14.63
2018-12-22T11:01:51.793Z,11.37
2018-12-22T11:04:19.342Z,9.80
2018-12-22T11:06:47.488Z,9.90
2018-12-22T11:09:15.630Z,13.23
2018-12-22T11:11:43.193Z,13.37
2018-12-22T11:14:11.955Z,16.27
2018-12-22T11:16:39.858Z,15.60
2018-12-22T11:19:07.427Z,11.23
2018-12-22T11:21:35.019Z,14.87
2018-12-22T11:24:02.979Z,12.17
2018-12-22T11:26:30.944Z,12.67
2018-12-22T11:28:58.511Z,15.43
2018-12-22T11:31:26.055Z,8.97
2018-12-22T11:33:53.617Z,14.23
2018-12-22T11:36:21.606Z,15.20
2018-12-22T11:38:49.159Z,19.57
2018-12-22T11:41:16.717Z,17.57
2018-12-22T11:43:44.264Z,10.07
2018-12-22T11:46:11.809Z,13.23
2018-12-22T11:48:39.638Z,21.97
2018-12-22T11:51:07.986Z,15.07
2018-12-22T11:53:35.535Z,20.47
2018-12-22T11:56:03.117Z,17.00
2018-12-22T11:58:32.249Z,18.50
2018-12-22T12:00:59.810Z,16.20
2018-12-22T12:03:29.802Z,11.20
2018-12-22T12:06:01.550Z,17.50
2018-12-22T12:08:30.205Z,16.77
2018-12-22T12:10:57.756Z,16.83
2018-12-22T12:13:25.309Z,19.90
2018-12-22T12:15:52.864Z,13.47
2018-12-22T12:18:29.395Z,15.67
2018-12-22T12:20:56.973Z,21.50
2018-12-22T12:23:24.524Z,15.20
2018-12-22T12:25:52.089Z,22.27
2018-12-22T12:28:19.640Z,13.77
2018-12-22T12:30:47.189Z,24.10
2018-12-22T12:33:14.744Z,18.93
2018-12-22T12:35:42.291Z,14.00
2018-12-22T12:38:09.843Z,16.40
2018-12-22T12:40:37.389Z,12.30
2018-12-22T12:43:04.939Z,20.77
2018-12-22T12:45:32.489Z,21.13
2018-12-22T12:48:00.042Z,13.67
2018-12-22T12:50:27.603Z,17.93
2018-12-22T12:52:55.162Z,18.07
2018-12-22T12:55:22.720Z,17.37
2018-12-22T12:57:50.281Z,20.30
2018-12-22T13:00:19.018Z,16.27
2018-12-22T13:02:47.026Z,17.30
2018-12-22T13:05:14.577Z,17.43
2018-12-22T13:07:42.125Z,14.77
2018-12-22T13:10:10.963Z,16.07
2018-12-22T13:12:40.536Z,12.70
2018-12-22T13:15:10.076Z,22.07
2018-12-22T13:17:37.635Z,16.40
2018-12-22T13:20:08.111Z,26.67
2018-12-22T13:22:35.656Z,19.57
2018-12-22T13:25:03.920Z,20.97
2018-12-22T13:27:31.471Z,23.70
2018-12-22T13:29:59.890Z,22.17
2018-12-22T13:32:27.451Z,22.17
2018-12-22T13:34:55.009Z,26.90
2018-12-22T13:37:22.570Z,19.80
2018-12-22T13:39:50.372Z,17.77
2018-12-22T13:42:17.923Z,21.93
2018-12-22T13:44:45.485Z,18.20
2018-12-22T13:47:17.197Z,20.37
2018-12-22T13:49:45.571Z,22.50
2018-12-22T13:52:13.236Z,27.30
2018-12-22T13:54:40.799Z,23.97
2018-12-22T13:57:08.364Z,18.93
2018-12-22T13:59:35.914Z,16.67
2018-12-22T14:02:04.222Z,29.37
2018-12-22T14:04:31.770Z,18.17
2018-12-22T14:06:59.322Z,18.67
2018-12-22T14:09:26.890Z,15.57
2018-12-22T14:11:54.454Z,22.73
2018-12-22T14:14:22.003Z,20.00
2018-12-22T14:16:49.630Z,18.50
2018-12-22T14:19:17.192Z,26.83
2018-12-22T14:21:44.745Z,15.03
2018-12-22T14:24:13.976Z,23.57
2018-12-22T14:26:41.528Z,27.50
2018-12-22T14:29:09.128Z,13.97
2018-12-22T14:31:36.682Z,22.93
2018-12-22T14:34:07.058Z,20.83
2018-12-22T14:36:34.620Z,12.33
2018-12-22T14:39:02.176Z,23.13
2018-12-22T14:41:29.730Z,27.07
2018-12-22T14:43:57.285Z,21.70
2018-12-22T14:46:25.370Z,21.83
2018-12-22T14:48:53.847Z,15.75
2018-12-22T14:51:21.484Z,22.40
2018-12-22T14:53:49.069Z,19.97
2018-12-22T14:56:19.901Z,23.37
2018-12-22T14:58:47.462Z,28.53
2018-12-22T15:01:15.016Z,22.30
2018-12-22T15:03:43.166Z,24.60
2018-12-22T15:06:10.721Z,21.20
2018-12-22T15:08:38.274Z,25.93
2018-12-22T15:11:05.844Z,20.37
2018-12-22T15:13:33.394Z,17.07
2018-12-22T15:16:02.279Z,30.20
2018-12-22T15:18:29.839Z,23.40
2018-12-22T15:21:06.986Z,24.30
2018-12-22T15:23:34.536Z,21.50
2018-12-22T15:26:02.822Z,23.33
2018-12-22T15:28:30.488Z,23.33
2018-12-22T15:30:58.050Z,20.27
2018-12-22T15:33:25.607Z,21.93
2018-12-22T15:35:53.164Z,22.63
2018-12-22T15:38:20.724Z,25.20
2018-12-22T15:40:48.316Z,20.67
2018-12-22T15:43:15.868Z,23.67
2018-12-22T15:45:43.424Z,24.53
2018-12-22T15:48:11.068Z,24.47
2018-12-22T15:50:40.230Z,23.13
2018-12-22T15:53:07.779Z,26.10
2018-12-22T15:55:35.326Z,15.57
2018-12-22T15:58:02.876Z,22.70
2018-12-22T16:00:31.087Z,20.73
2018-12-22T16:02:58.743Z,17.87
2018-12-22T16:05:26.304Z,29.07
2018-12-22T16:07:53.856Z,24.50
2018-12-22T16:10:21.403Z,19.47
2018-12-22T16:12:48.958Z,18.60
2018-12-22T16:15:20.110Z,17.33
2018-12-22T16:17:47.772Z,23.03
2018-12-22T16:20:15.322Z,25.43
2018-12-22T16:22:44.840Z,17.70
2018-12-22T16:25:12.876Z,21.87
2018-12-22T16:27:41.064Z,21.23
2018-12-22T16:30:25.494Z,24.63
2018-12-22T16:33:01.420Z,23.93
2018-12-22T16:35:22.631Z,21.30
2018-12-22T16:37:50.185Z,21.73
2018-12-22T16:40:17.735Z,18.67
2018-12-22T16:42:45.284Z,18.73
2018-12-22T16:45:15.033Z,18.33
2018-12-22T16:47:42.649Z,18.23
2018-12-22T16:50:11.804Z,18.67
2018-12-22T16:52:39.382Z,22.00
2018-12-22T16:55:14.644Z,20.83
2018-12-22T16:57:51.816Z,11.83
2018-12-22T17:00:22.284Z,25.23
2018-12-22T17:02:52.489Z,24.80
2018-12-22T17:05:19.811Z,15.50
2018-12-22T17:07:47.371Z,17.67
2018-12-22T17:10:14.928Z,21.67
2018-12-22T17:12:42.485Z,28.20
2018-12-22T17:15:11.825Z,22.93
2018-12-22T17:17:39.434Z,18.67
2018-12-22T17:20:11.362Z,20.80
2018-12-22T17:22:40.900Z,21.77
2018-12-22T17:25:10.424Z,20.87
2018-12-22T17:27:37.976Z,22.83
2018-12-22T17:30:06.984Z,20.63
2018-12-22T17:32:34.549Z,25.80
2018-12-22T17:35:02.105Z,22.30
2018-12-22T17:37:29.993Z,31.20
2018-12-22T17:39:57.543Z,24.33
2018-12-22T17:42:25.096Z,20.40
2018-12-22T17:44:52.652Z,17.43
2018-12-22T17:47:20.202Z,14.87
2018-12-22T17:49:47.761Z,16.23
2018-12-22T17:52:15.321Z,12.90
2018-12-22T17:54:42.876Z,17.57
2018-12-22T17:57:10.427Z,18.00
2018-12-22T17:59:37.976Z,17.57
2018-12-22T18:02:05.560Z,19.40
2018-12-22T18:04:33.108Z,14.57
2018-12-22T18:07:00.705Z,19.17
2018-12-22T18:09:28.273Z,15.73
2018-12-22T18:11:55.834Z,21.57
2018-12-22T18:14:23.388Z,22.63
2018-12-22T18:16:50.937Z,19.27
2018-12-22T18:19:18.498Z,25.20
2018-12-22T18:21:46.056Z,12.87
2018-12-22T18:24:13.617Z,18.93
2018-12-22T18:26:41.167Z,16.33
2018-12-22T18:29:08.723Z,19.00
2018-12-22T18:31:36.276Z,20.33
2018-12-22T18:34:03.832Z,18.57
2018-12-22T18:36:31.397Z,22.93
2018-12-22T18:38:58.968Z,22.10
2018-12-22T18:41:26.536Z,17.17
2018-12-22T18:43:54.116Z,19.93
2018-12-22T18:46:21.672Z,16.53
2018-12-22T18:48:49.231Z,19.27
2018-12-22T18:51:16.821Z,23.37
2018-12-22T18:53:44.385Z,17.70
2018-12-22T18:56:11.940Z,19.30
2018-12-22T18:58:39.503Z,18.60
2018-12-22T19:01:07.076Z,16.83
2018-12-22T19:03:34.675Z,18.00
2018-12-22T19:06:02.303Z,17.57
2018-12-22T19:08:29.868Z,18.80
2018-12-22T19:10:57.416Z,15.13
2018-12-22T19:13:25.228Z,17.03
2018-12-22T19:15:52.776Z,18.90
2018-12-22T19:18:20.331Z,21.33
2018-12-22T19:20:47.885Z,20.73
2018-12-22T19:23:15.435Z,14.33
2018-12-22T19:25:42.985Z,17.00
2018-12-22T19:28:11.567Z,17.40
2018-12-22T19:30:39.115Z,12.03
2018-12-22T19:33:06.704Z,21.43
2018-12-22T19:35:34.252Z,11.50
2018-12-22T19:38:01.805Z,14.50
2018-12-22T19:40:29.363Z,15.13
2018-12-22T19:42:57.231Z,15.33
2018-12-22T19:45:26.076Z,19.67
2018-12-22T19:47:53.628Z,18.63
2018-12-22T19:50:21.182Z,18.07
2018-12-22T19:52:48.735Z,18.90
2018-12-22T19:55:16.292Z,17.50
2018-12-22T19:57:43.848Z,16.73
2018-12-22T20:00:11.400Z,17.33
2018-12-22T20:02:38.968Z,19.87
2018-12-22T20:05:06.549Z,23.13
2018-12-22T20:07:34.097Z,15.77
2018-12-22T20:10:01.652Z,13.70
2018-12-22T20:12:29.222Z,13.00
2018-12-22T20:14:56.798Z,15.33
2018-12-22T20:17:24.348Z,13.60
2018-12-22T20:19:51.896Z,17.97
2018-12-22T20:22:19.447Z,21.83
2018-12-22T20:24:47.021Z,14.47
2018-12-22T20:27:14.959Z,16.70
2018-12-22T20:29:42.522Z,18.07
2018-12-22T20:32:10.372Z,18.50
2018-12-22T20:34:37.931Z,18.30
2018-12-22T20:37:05.476Z,12.77
2018-12-22T20:39:33.028Z,17.63
2018-12-22T20:42:00.583Z,19.73
2018-12-22T20:44:28.134Z,19.27
2018-12-22T20:46:55.683Z,16.77
2018-12-22T20:49:23.236Z,25.60
2018-12-22T20:51:50.789Z,22.50
2018-12-22T20:54:18.340Z,23.60
2018-12-22T20:56:46.316Z,26.27
2018-12-22T20:59:13.867Z,17.17
2018-12-22T21:01:41.825Z,14.60
2018-12-22T21:04:09.589Z,17.83
2018-12-22T21:06:37.145Z,20.37
2018-12-22T21:09:05.784Z,20.47
2018-12-22T21:11:33.364Z,18.87
2018-12-22T21:14:00.911Z,18.43
2018-12-22T21:16:28.468Z,18.80
2018-12-22T21:18:56.033Z,20.57
2018-12-22T21:21:23.588Z,24.57
2018-12-22T21:23:51.136Z,16.57
2018-12-22T21:26:18.684Z,17.33
2018-12-22T21:28:46.232Z,20.23
2018-12-22T21:31:13.783Z,19.70
2018-12-22T21:33:41.434Z,22.50
2018-12-22T21:36:08.996Z,23.07
2018-12-22T21:38:36.637Z,21.87
2018-12-22T21:41:04.205Z,14.03
2018-12-22T21:43:31.762Z,24.43
2018-12-22T21:45:59.308Z,18.47
2018-12-22T21:48:27.220Z,20.20
2018-12-22T21:50:54.776Z,20.33
2018-12-22T22:00:25.935Z,19.43
2018-12-22T22:02:53.488Z,16.50
2018-12-22T22:05:21.037Z,15.90
2018-12-22T22:07:48.616Z,25.10
2018-12-22T22:10:16.212Z,21.87
2018-12-22T22:12:43.758Z,21.30
2018-12-22T22:15:11.323Z,20.30
2018-12-22T22:17:38.904Z,12.93
2018-12-22T22:20:06.464Z,16.93
2018-12-22T22:22:34.027Z,14.17
2018-12-22T22:25:02.609Z,18.93
2018-12-22T22:27:31.876Z,16.53
2018-12-22T22:29:59.439Z,12.63
2018-12-22T22:32:26.992Z,14.57
2018-12-22T22:34:54.547Z,16.73
2018-12-22T22:37:22.098Z,20.27
2018-12-22T22:39:49.658Z,12.37
2018-12-22T22:42:17.220Z,17.20
2018-12-22T22:44:45.104Z,11.93
2018-12-22T22:47:12.659Z,22.50
2018-12-22T22:49:40.212Z,17.10
2018-12-22T22:52:07.772Z,15.03
2018-12-22T22:54:36.136Z,14.93
2018-12-22T22:57:03.683Z,15.80
2018-12-22T22:59:31.243Z,15.03
2018-12-22T23:01:58.791Z,20.73
2018-12-22T23:04:26.353Z,19.60
2018-12-22T23:06:53.968Z,15.13
2018-12-22T23:09:21.524Z,23.60
2018-12-22T23:11:49.105Z,16.50
2018-12-22T23:14:16.759Z,21.93
2018-12-22T23:16:44.341Z,15.17
2018-12-22T23:19:11.905Z,16.50
2018-12-22T23:21:39.484Z,19.37
2018-12-22T23:24:07.060Z,19.20
2018-12-22T23:26:34.607Z,16.20
2018-12-22T23:29:02.160Z,16.50
2018-12-22T23:31:29.720Z,17.27
2018-12-22T23:33:57.279Z,21.87
2018-12-22T23:36:24.847Z,19.03
2018-12-22T23:38:52.391Z,14.00
2018-12-22T23:41:19.936Z,28.70
2018-12-22T23:43:48.412Z,29.13
2018-12-22T23:46:15.964Z,20.90
2018-12-22T23:48:43.523Z,18.03
2018-12-22T23:51:11.115Z,15.23
2018-12-22T23:53:38.697Z,15.13
2018-12-22T23:56:06.294Z,11.37
2018-12-22T23:58:33.852Z,20.03
